Glinton, United Kingdom
Current Conditions -  °F | °C
As of 9:50 AM on Saturday 20 Dec 2014 (Local Time) from EGXT Reporting Station
Broken Clouds Broken Clouds  
Wind Chill: 37°   Ceiling: 4700
Heat Index: 45°   Visibility: 6mi
Dew Point: 37°   Wind: 18mph
Humidity: 76%   Direction: 260°W
Pressure: 30.18"   Gusts: NA
Location:  52.64°N, 0.3°W
Report Text: EGXT 200950Z AUTO 26016KT 9999 FEW034/// BKN047/// 07/03 Q1022
Loading
Personal Weather Stations






























Interactive Weather Map New forecast layout! Learn more

10-Day Weather Forecast

Advertisements
Track Severe Weather on mobile